createdAt,value
2022-12-11T00:01:43.801Z,99459.70
2022-12-11T00:04:16.040Z,99460.93
2022-12-11T00:06:50.545Z,99453.70
2022-12-11T00:09:23.250Z,99450.23
2022-12-11T00:11:55.393Z,99453.64
2022-12-11T00:14:27.509Z,99456.22
2022-12-11T00:16:59.668Z,99454.08
2022-12-11T00:19:32.078Z,99458.34
2022-12-11T00:22:04.399Z,99461.05
2022-12-11T00:24:36.563Z,99456.59
2022-12-11T00:27:09.248Z,99453.89
2022-12-11T00:29:41.491Z,99457.44
2022-12-11T00:32:13.691Z,99453.67
2022-12-11T00:34:45.938Z,99449.18
2022-12-11T00:37:17.961Z,99450.05
2022-12-11T00:39:50.390Z,99448.17
2022-12-11T00:42:22.460Z,99446.64
2022-12-11T00:44:56.541Z,99446.05
2022-12-11T00:47:29.026Z,99448.52
2022-12-11T00:50:01.119Z,99453.50
2022-12-11T00:52:33.499Z,99447.02
2022-12-11T00:55:06.247Z,99446.16
2022-12-11T00:57:38.337Z,99443.81
2022-12-11T01:00:13.355Z,99442.10
2022-12-11T01:02:45.443Z,99436.02
2022-12-11T01:05:18.453Z,99431.70
2022-12-11T01:07:50.671Z,99426.48
2022-12-11T01:10:26.061Z,99427.17
2022-12-11T01:13:00.383Z,99417.79
2022-12-11T01:15:39.954Z,99420.95
2022-12-11T01:18:15.399Z,99425.41
2022-12-11T01:20:47.463Z,99432.19
2022-12-11T01:23:19.628Z,99437.66
2022-12-11T01:25:52.186Z,99438.95
2022-12-11T01:28:24.374Z,99439.58
2022-12-11T01:30:56.509Z,99445.17
2022-12-11T01:33:29.051Z,99446.70
2022-12-11T01:36:01.135Z,99442.04
2022-12-11T01:38:33.228Z,99438.70
2022-12-11T01:41:05.576Z,99441.55
2022-12-11T01:43:56.609Z,99441.98
2022-12-11T01:46:29.389Z,99443.70
2022-12-11T01:49:03.640Z,99435.55
2022-12-11T01:51:41.999Z,99437.18
2022-12-11T01:54:16.138Z,99433.65
2022-12-11T01:56:49.970Z,99427.10
2022-12-11T01:59:25.695Z,99427.55
2022-12-11T02:02:02.029Z,99424.06
2022-12-11T02:04:36.384Z,99422.95
2022-12-11T02:07:08.473Z,99417.02
2022-12-11T02:09:42.536Z,99413.52
2022-12-11T02:12:24.303Z,99411.27
2022-12-11T02:15:04.517Z,99410.98
2022-12-11T02:17:42.847Z,99411.47
2022-12-11T02:20:23.365Z,99412.53
2022-12-11T02:23:25.559Z,99410.89
2022-12-11T02:26:07.737Z,99406.94
2022-12-11T02:28:44.717Z,99402.80
2022-12-11T02:31:23.557Z,99398.73
2022-12-11T02:34:04.594Z,99396.60
2022-12-11T02:36:39.913Z,99397.64
2022-12-11T02:39:15.433Z,99398.23
2022-12-11T02:41:51.801Z,99395.27
2022-12-11T02:44:26.656Z,99395.70
2022-12-11T02:46:59.682Z,99392.47
2022-12-11T02:49:32.450Z,99388.77
2022-12-11T02:52:06.437Z,99383.33
2022-12-11T02:54:40.731Z,99384.38
2022-12-11T02:57:18.019Z,99384.08
2022-12-11T02:59:50.545Z,99389.36
2022-12-11T03:02:23.104Z,99387.77
2022-12-11T03:04:56.799Z,99386.52
2022-12-11T03:07:35.292Z,99380.88
2022-12-11T03:10:09.645Z,99384.09
2022-12-11T03:12:53.047Z,99382.94
2022-12-11T03:15:35.016Z,99378.67
2022-12-11T03:18:15.402Z,99375.85
2022-12-11T03:20:52.383Z,99374.02
2022-12-11T03:23:32.358Z,99376.10
2022-12-11T03:26:07.631Z,99370.02
2022-12-11T03:28:46.862Z,99368.95
2022-12-11T03:31:24.841Z,99363.71
2022-12-11T03:34:03.688Z,99359.48
2022-12-11T03:36:38.628Z,99358.38
2022-12-11T03:39:10.969Z,99357.14
2022-12-11T03:41:45.775Z,99350.48
2022-12-11T03:44:18.204Z,99349.36
2022-12-11T03:46:51.620Z,99342.59
2022-12-11T03:49:29.039Z,99345.64
2022-12-11T03:52:04.178Z,99342.77
2022-12-11T03:54:37.905Z,99346.15
2022-12-11T03:57:12.838Z,99352.11
2022-12-11T03:59:45.013Z,99352.20
2022-12-11T04:02:17.056Z,99349.00
2022-12-11T04:04:49.675Z,99344.76
2022-12-11T04:07:21.792Z,99342.66
2022-12-11T04:09:53.935Z,99341.41
2022-12-11T04:12:26.028Z,99341.14
2022-12-11T04:15:04.083Z,99339.79
2022-12-11T04:17:55.142Z,99339.30
2022-12-11T04:20:45.004Z,99337.34
2022-12-11T04:23:37.112Z,99337.17
2022-12-11T04:26:11.435Z,99336.55
2022-12-11T04:28:44.495Z,99337.41
2022-12-11T04:31:18.547Z,99341.75
2022-12-11T04:33:50.853Z,99338.69
2022-12-11T04:36:22.919Z,99339.38
2022-12-11T04:38:55.011Z,99342.58
2022-12-11T04:41:27.103Z,99348.98
2022-12-11T04:43:59.347Z,99349.53
2022-12-11T04:46:31.556Z,99346.39
2022-12-11T04:49:03.864Z,99345.56
2022-12-11T04:51:35.927Z,99341.92
2022-12-11T04:54:08.072Z,99339.55
2022-12-11T04:56:40.169Z,99337.23
2022-12-11T04:59:12.311Z,99336.38
2022-12-11T05:01:44.552Z,99331.39
2022-12-11T05:04:17.006Z,99334.20
2022-12-11T05:06:52.628Z,99332.84
2022-12-11T05:09:26.149Z,99332.83
2022-12-11T05:11:58.370Z,99335.26
2022-12-11T05:14:32.173Z,99336.83
2022-12-11T05:17:04.601Z,99343.94
2022-12-11T05:19:36.793Z,99346.11
2022-12-11T05:22:08.884Z,99347.30
2022-12-11T05:24:40.981Z,99344.38
2022-12-11T05:27:13.220Z,99341.27
2022-12-11T05:29:45.719Z,99341.77
2022-12-11T05:32:17.838Z,99344.89
2022-12-11T05:34:51.311Z,99345.33
2022-12-11T05:37:23.301Z,99344.52
2022-12-11T05:39:55.326Z,99345.19
2022-12-11T05:42:29.138Z,99340.44
2022-12-11T05:45:01.529Z,99340.13
2022-12-11T05:47:33.896Z,99340.58
2022-12-11T05:50:06.682Z,99331.79
2022-12-11T05:52:38.897Z,99329.52
2022-12-11T05:55:12.000Z,99329.38
2022-12-11T05:57:44.750Z,99324.77
2022-12-11T06:00:17.093Z,99322.91
2022-12-11T06:02:49.431Z,99322.05
2022-12-11T06:05:21.639Z,99320.85
2022-12-11T06:07:53.821Z,99317.88
2022-12-11T06:10:26.105Z,99315.58
2022-12-11T06:12:58.314Z,99315.45
2022-12-11T06:15:30.689Z,99317.42
2022-12-11T06:18:02.857Z,99319.77
2022-12-11T06:20:35.920Z,99313.50
2022-12-11T06:23:08.267Z,99310.23
2022-12-11T06:25:42.755Z,99303.24
2022-12-11T06:28:14.959Z,99299.42
2022-12-11T06:30:47.155Z,99298.65
2022-12-11T06:33:19.347Z,99296.21
2022-12-11T06:35:51.514Z,99296.76
2022-12-11T06:38:23.765Z,99293.02
2022-12-11T06:40:59.626Z,99298.14
2022-12-11T06:43:32.015Z,99294.35
2022-12-11T06:46:06.501Z,99295.03
2022-12-11T06:48:38.964Z,99300.21
2022-12-11T06:51:14.610Z,99298.92
2022-12-11T06:53:47.061Z,99294.15
2022-12-11T06:56:19.104Z,99296.55
2022-12-11T06:58:52.119Z,99296.16
2022-12-11T07:01:27.055Z,99293.23
2022-12-11T07:04:00.909Z,99294.75
2022-12-11T07:06:33.196Z,99291.41
2022-12-11T07:09:06.573Z,99288.02
2022-12-11T07:11:38.896Z,99287.48
2022-12-11T07:14:11.619Z,99288.81
2022-12-11T07:16:43.748Z,99287.88
2022-12-11T07:19:15.961Z,99285.05
2022-12-11T07:21:48.155Z,99287.00
2022-12-11T07:24:20.938Z,99288.31
2022-12-11T07:26:54.844Z,99284.73
2022-12-11T07:29:27.061Z,99281.79
2022-12-11T07:31:59.488Z,99284.70
2022-12-11T07:34:31.684Z,99282.12
2022-12-11T07:37:03.759Z,99283.30
2022-12-11T07:39:36.250Z,99286.18
2022-12-11T07:42:08.470Z,99285.15
2022-12-11T07:44:40.640Z,99292.02
2022-12-11T08:11:28.689Z,99305.45
2022-12-11T08:14:01.164Z,99309.67
2022-12-11T08:16:33.618Z,99312.55
2022-12-11T08:19:05.865Z,99307.75
2022-12-11T08:21:37.976Z,99308.56
2022-12-11T08:24:11.299Z,99308.06
2022-12-11T08:26:43.439Z,99303.95
2022-12-11T08:29:16.171Z,99303.98
2022-12-11T08:31:48.261Z,99301.27
2022-12-11T08:34:20.428Z,99293.81
2022-12-11T08:36:52.932Z,99292.02
2022-12-11T08:39:25.432Z,99289.46
2022-12-11T08:41:57.628Z,99286.95
2022-12-11T08:44:30.038Z,99282.63
2022-12-11T08:47:02.371Z,99283.27
2022-12-11T08:49:34.853Z,99288.02
2022-12-11T08:52:08.023Z,99285.76
2022-12-11T08:54:40.986Z,99283.94
2022-12-11T08:57:13.094Z,99279.09
2022-12-11T08:59:46.101Z,99274.63
2022-12-11T09:02:18.382Z,99272.65
2022-12-11T09:04:50.670Z,99262.23
2022-12-11T09:07:22.865Z,99265.06
2022-12-11T09:09:56.851Z,99261.61
2022-12-11T09:12:29.453Z,99258.80
2022-12-11T09:15:01.601Z,99252.70
2022-12-11T09:17:34.738Z,99245.05
2022-12-11T09:20:08.913Z,99233.86
2022-12-11T09:22:42.945Z,99230.79
2022-12-11T09:25:15.109Z,99229.59
2022-12-11T09:27:47.639Z,99226.95
2022-12-11T09:30:20.254Z,99227.13
2022-12-11T09:32:53.226Z,99223.88
2022-12-11T09:35:25.422Z,99219.88
2022-12-11T09:37:57.947Z,99219.05
2022-12-11T09:40:30.626Z,99211.36
2022-12-11T09:43:10.525Z,99213.41
2022-12-11T09:45:42.721Z,99215.14
2022-12-11T09:48:22.798Z,99209.78
2022-12-11T09:50:57.143Z,99201.38
2022-12-11T09:53:35.992Z,99198.20
2022-12-11T09:56:17.636Z,99195.66
2022-12-11T09:59:03.639Z,99188.16
2022-12-11T10:01:45.960Z,99184.55
2022-12-11T10:04:42.343Z,99189.19
2022-12-11T10:07:18.098Z,99187.83
2022-12-11T10:09:55.775Z,99181.42
2022-12-11T10:12:40.109Z,99183.61
2022-12-11T10:15:34.935Z,99183.92
2022-12-11T10:18:12.518Z,99181.98
2022-12-11T10:20:45.611Z,99178.66
2022-12-11T10:23:22.407Z,99176.36
2022-12-11T10:25:59.312Z,99172.88
2022-12-11T10:28:31.767Z,99175.92
2022-12-11T10:31:12.533Z,99178.77
2022-12-11T10:34:00.677Z,99177.91
2022-12-11T10:36:36.532Z,99174.98
2022-12-11T10:39:16.147Z,99168.25
2022-12-11T10:41:50.184Z,99167.69
2022-12-11T10:44:24.604Z,99161.48
2022-12-11T10:47:07.654Z,99156.95
2022-12-11T10:49:44.480Z,99152.88
2022-12-11T10:52:26.429Z,99155.84
2022-12-11T10:55:03.254Z,99152.15
2022-12-11T10:57:38.277Z,99151.36
2022-12-11T11:00:10.483Z,99144.56
2022-12-11T11:02:46.261Z,99132.19
2022-12-11T11:05:32.535Z,99125.53
2022-12-11T11:08:22.725Z,99119.25
2022-12-11T11:10:59.963Z,99117.45
2022-12-11T11:13:33.172Z,99121.58
2022-12-11T11:16:09.982Z,99118.31
2022-12-11T11:18:43.893Z,99117.16
2022-12-11T11:21:22.592Z,99111.83
2022-12-11T11:23:55.908Z,99116.84
2022-12-11T11:26:43.879Z,99115.95
2022-12-11T11:29:28.811Z,99112.05
2022-12-11T11:32:14.552Z,99103.58
2022-12-11T11:34:46.721Z,99101.77
2022-12-11T11:37:34.493Z,99098.34
2022-12-11T11:40:14.943Z,99099.02
2022-12-11T11:42:53.510Z,99098.83
2022-12-11T11:45:30.774Z,99098.90
2022-12-11T11:48:11.978Z,99093.88
2022-12-11T11:50:50.597Z,99088.77
2022-12-11T11:53:28.195Z,99086.36
2022-12-11T11:56:15.901Z,99077.35
2022-12-11T11:58:59.444Z,99079.06
2022-12-11T12:01:32.627Z,99077.58
2022-12-11T12:04:06.863Z,99080.46
2022-12-11T12:06:58.804Z,99079.06
2022-12-11T12:09:42.501Z,99077.30
2022-12-11T12:12:33.944Z,99072.20
2022-12-11T12:15:30.756Z,99068.27
2022-12-11T12:18:15.314Z,99062.40
2022-12-11T12:20:55.804Z,99052.06
2022-12-11T12:23:51.140Z,99050.77
2022-12-11T12:26:29.041Z,99047.42
2022-12-11T12:29:12.989Z,99043.73
2022-12-11T12:31:58.679Z,99040.98
2022-12-11T12:34:45.584Z,99041.67
2022-12-11T12:37:29.198Z,99040.06
2022-12-11T12:40:14.752Z,99036.75
2022-12-11T12:42:54.729Z,99032.23
2022-12-11T12:45:33.282Z,99031.52
2022-12-11T12:48:05.620Z,99032.96
2022-12-11T12:50:43.419Z,99035.18
2022-12-11T12:53:20.529Z,99033.19
2022-12-11T12:55:54.230Z,99028.30
2022-12-11T12:58:32.111Z,99031.55
2022-12-11T13:01:20.550Z,99027.92
2022-12-11T13:03:59.153Z,99023.67
2022-12-11T13:06:42.578Z,99019.59
2022-12-11T13:09:18.241Z,99019.39
2022-12-11T13:11:54.755Z,99018.60
2022-12-11T13:14:31.947Z,99016.96
2022-12-11T13:17:36.728Z,99020.55
2022-12-11T13:20:19.831Z,99016.25
2022-12-11T13:23:10.042Z,99013.98
2022-12-11T13:25:54.861Z,99017.83
2022-12-11T13:28:34.369Z,99013.08
2022-12-11T13:31:24.748Z,99013.83
2022-12-11T13:34:04.157Z,99003.92
2022-12-11T13:36:40.447Z,99002.75
2022-12-11T13:39:20.339Z,98996.14
2022-12-11T13:41:56.021Z,98996.39
2022-12-11T13:44:33.055Z,98994.97
2022-12-11T13:47:07.421Z,98989.54
2022-12-11T13:49:42.508Z,98987.01
2022-12-11T13:52:22.141Z,98988.78
2022-12-11T13:54:56.190Z,98988.23
2022-12-11T13:57:29.639Z,98983.98
2022-12-11T14:00:02.166Z,98980.75
2022-12-11T14:02:40.322Z,98979.81
2022-12-11T14:05:15.588Z,98975.01
2022-12-11T14:07:50.920Z,98982.31
2022-12-11T14:10:25.531Z,98976.35
2022-12-11T14:13:04.129Z,98974.23
2022-12-11T14:15:38.546Z,98973.64
2022-12-11T14:18:16.115Z,98973.30
2022-12-11T14:20:54.581Z,98971.05
2022-12-11T14:23:29.087Z,98966.81
2022-12-11T14:26:03.680Z,98966.73
2022-12-11T14:28:43.143Z,98966.62
2022-12-11T14:31:20.705Z,98966.52
2022-12-11T14:33:56.491Z,98965.23
2022-12-11T14:36:30.503Z,98966.95
2022-12-11T14:39:07.560Z,98967.81
2022-12-11T14:41:47.359Z,98972.73
2022-12-11T14:44:21.651Z,98973.96
2022-12-11T14:46:58.414Z,98977.27
2022-12-11T14:49:42.656Z,98973.39
2022-12-11T14:52:20.559Z,98969.18
2022-12-11T14:54:58.129Z,98962.91
2022-12-11T14:57:33.215Z,98962.49
2022-12-11T15:00:04.254Z,98958.38
2022-12-11T15:02:37.841Z,98959.23
2022-12-11T15:05:19.295Z,98959.98
2022-12-11T15:08:00.124Z,98959.77
2022-12-11T15:10:38.812Z,98957.03
2022-12-11T15:13:11.771Z,98957.41
2022-12-11T15:15:48.830Z,98953.91
2022-12-11T15:18:24.683Z,98950.17
2022-12-11T15:21:00.616Z,98950.48
2022-12-11T15:23:33.266Z,98951.85
2022-12-11T15:26:05.568Z,98949.73
2022-12-11T15:28:40.322Z,98946.05
2022-12-11T15:31:27.210Z,98946.96
2022-12-11T15:33:59.688Z,98942.20
2022-12-11T15:36:36.229Z,98944.05
2022-12-11T15:39:10.421Z,98945.27
2022-12-11T15:41:46.187Z,98948.88
2022-12-11T15:44:22.642Z,98953.66
2022-12-11T15:46:54.989Z,98951.46
2022-12-11T15:49:27.158Z,98953.09
2022-12-11T15:51:59.371Z,98957.80
2022-12-11T15:54:31.468Z,98954.67
2022-12-11T15:57:08.779Z,98952.52
2022-12-11T15:59:41.003Z,98950.23
2022-12-11T16:02:14.786Z,98949.36
2022-12-11T16:04:46.985Z,98949.86
2022-12-11T16:07:21.782Z,98947.54
2022-12-11T16:09:54.165Z,98944.71
2022-12-11T16:12:26.274Z,98945.84
2022-12-11T16:14:58.415Z,98946.59
2022-12-11T16:17:31.507Z,98950.23
2022-12-11T16:20:03.774Z,98947.83
2022-12-11T16:22:35.917Z,98948.84
2022-12-11T16:25:09.923Z,98943.27
2022-12-11T16:27:42.378Z,98935.83
2022-12-11T16:30:16.748Z,98936.37
2022-12-11T16:32:48.865Z,98936.86
2022-12-11T16:35:21.993Z,98935.49
2022-12-11T16:37:54.888Z,98933.75
2022-12-11T16:40:27.469Z,98933.14
2022-12-11T16:42:59.705Z,98932.68
2022-12-11T16:45:33.649Z,98936.47
2022-12-11T16:48:07.537Z,98930.67
2022-12-11T16:50:42.362Z,98929.71
2022-12-11T16:53:14.842Z,98932.48
2022-12-11T16:55:47.159Z,98928.35
2022-12-11T16:58:20.296Z,98930.98
2022-12-11T17:00:52.802Z,98933.38
2022-12-11T17:03:25.031Z,98938.91
2022-12-11T17:05:57.806Z,98934.55
2022-12-11T17:08:30.136Z,98928.55
2022-12-11T17:11:02.243Z,98926.64
2022-12-11T17:13:36.112Z,98928.45
2022-12-11T17:16:10.414Z,98929.39
2022-12-11T17:18:43.484Z,98927.23
2022-12-11T17:21:18.621Z,98922.93
2022-12-11T17:23:51.623Z,98918.02
2022-12-11T17:26:25.364Z,98918.39
2022-12-11T17:28:58.915Z,98913.05
2022-12-11T17:31:31.086Z,98914.23
2022-12-11T17:34:03.489Z,98907.65
2022-12-11T17:36:35.925Z,98898.86
2022-12-11T17:39:08.534Z,98892.98
2022-12-11T17:41:40.780Z,98890.70
2022-12-11T17:44:13.334Z,98892.50
2022-12-11T17:46:45.561Z,98889.14
2022-12-11T17:49:17.796Z,98884.29
2022-12-11T17:51:50.271Z,98884.67
2022-12-11T17:54:22.518Z,98883.86
2022-12-11T17:56:54.686Z,98881.52
2022-12-11T17:59:26.879Z,98883.73
2022-12-11T18:01:59.279Z,98884.05
2022-12-11T18:04:31.574Z,98880.52
2022-12-11T18:07:03.742Z,98880.60
2022-12-11T18:09:35.955Z,98874.79
2022-12-11T18:12:09.238Z,98876.42
2022-12-11T18:14:41.427Z,98871.45
2022-12-11T18:17:13.568Z,98872.17
2022-12-11T18:19:46.327Z,98873.23
2022-12-11T18:22:18.723Z,98879.99
2022-12-11T18:24:51.457Z,98874.71
2022-12-11T18:27:23.649Z,98869.59
2022-12-11T18:29:55.897Z,98864.02
2022-12-11T18:32:28.953Z,98863.27
2022-12-11T18:35:02.408Z,98862.54
2022-12-11T18:37:34.649Z,98861.23
2022-12-11T18:40:10.410Z,98859.92
2022-12-11T18:42:42.598Z,98861.44
2022-12-11T18:45:15.040Z,98860.91
2022-12-11T18:47:47.419Z,98861.36
2022-12-11T18:50:19.715Z,98865.02
2022-12-11T18:52:55.829Z,98866.34
2022-12-11T18:55:28.019Z,98866.55
2022-12-11T18:58:00.212Z,98867.77
2022-12-11T19:00:32.405Z,98866.34
2022-12-11T19:03:04.549Z,98863.83
2022-12-11T19:05:40.430Z,98863.67
2022-12-11T19:08:14.071Z,98863.79
2022-12-11T19:10:47.836Z,98869.01
2022-12-11T19:13:19.954Z,98864.13
2022-12-11T19:15:52.072Z,98864.96
2022-12-11T19:18:24.445Z,98863.85
2022-12-11T19:21:06.492Z,98863.17
2022-12-11T19:23:41.400Z,98859.88
2022-12-11T19:26:16.566Z,98857.83
2022-12-11T19:28:49.837Z,98857.27
2022-12-11T19:31:23.908Z,98855.27
2022-12-11T19:33:56.909Z,98858.40
2022-12-11T19:36:31.643Z,98856.53
2022-12-11T19:39:08.352Z,98857.23
2022-12-11T19:41:44.319Z,98857.75
2022-12-11T19:44:16.566Z,98864.39
2022-12-11T19:46:49.164Z,98860.76
2022-12-11T19:49:21.670Z,98858.77
2022-12-11T19:51:53.848Z,98853.52
2022-12-11T19:54:26.985Z,98856.05
2022-12-11T19:56:59.508Z,98857.27
2022-12-11T19:59:31.654Z,98852.64
2022-12-11T20:02:03.829Z,98847.53
2022-12-11T20:04:36.088Z,98844.76
2022-12-11T20:07:08.563Z,98842.53
2022-12-11T20:09:40.759Z,98845.80
2022-12-11T20:12:13.385Z,98843.92
2022-12-11T20:14:45.505Z,98846.77
2022-12-11T20:17:17.766Z,98845.90
2022-12-11T20:19:50.121Z,98842.38
2022-12-11T20:22:22.449Z,98843.85
2022-12-11T20:24:54.539Z,98842.25
2022-12-11T20:27:28.592Z,98847.09
2022-12-11T20:30:00.818Z,98845.27
2022-12-11T20:32:33.464Z,98849.50
2022-12-11T20:35:06.871Z,98845.80
2022-12-11T20:37:39.010Z,98847.45
2022-12-11T20:40:14.304Z,98845.84
2022-12-11T20:42:46.599Z,98845.81
2022-12-11T20:45:19.491Z,98842.69
2022-12-11T20:47:51.701Z,98842.29
2022-12-11T20:50:24.254Z,98839.45
2022-12-11T20:52:56.472Z,98832.02
2022-12-11T20:55:28.643Z,98831.95
2022-12-11T20:58:01.014Z,98823.98
2022-12-11T21:00:33.234Z,98820.81
2022-12-11T21:03:05.634Z,98815.03
2022-12-11T21:05:43.079Z,98809.92
2022-12-11T21:08:15.429Z,98805.77
2022-12-11T21:10:48.025Z,98804.50
2022-12-11T21:13:20.474Z,98796.88
2022-12-11T21:15:56.494Z,98797.20
2022-12-11T21:18:28.806Z,98795.60
2022-12-11T21:21:01.049Z,98793.63
2022-12-11T21:23:33.603Z,98795.56
2022-12-11T21:26:06.436Z,98797.16
2022-12-11T21:28:38.733Z,98798.21
2022-12-11T21:31:14.636Z,98794.62
2022-12-11T21:33:48.079Z,98790.34
2022-12-11T21:36:20.665Z,98788.39
2022-12-11T21:38:53.373Z,98791.62
2022-12-11T21:41:26.485Z,98793.89
2022-12-11T21:45:25.988Z,98795.11
2022-12-11T21:46:51.723Z,98795.49
2022-12-11T21:49:24.007Z,98790.67
2022-12-11T21:51:56.185Z,98789.81
2022-12-11T21:54:28.778Z,98784.15
2022-12-11T21:57:00.998Z,98780.48
2022-12-11T21:59:33.530Z,98780.98
2022-12-11T22:02:05.898Z,98781.68
2022-12-11T22:04:38.066Z,98781.02
2022-12-11T22:07:10.414Z,98784.89
2022-12-11T22:09:42.583Z,98783.21
2022-12-11T22:12:22.380Z,98781.04
2022-12-11T22:14:55.263Z,98779.23
2022-12-11T22:17:27.483Z,98774.90
2022-12-11T22:20:01.164Z,98779.45
2022-12-11T22:22:33.458Z,98777.45
2022-12-11T22:25:07.904Z,98775.59
2022-12-11T22:27:40.072Z,98775.38
2022-12-11T22:30:14.419Z,98771.91
2022-12-11T22:32:46.611Z,98767.65
2022-12-11T22:39:42.292Z,98763.57
2022-12-11T22:42:30.973Z,98764.11
2022-12-11T22:45:19.720Z,98761.69
2022-12-11T22:47:52.039Z,98761.63
2022-12-11T22:50:24.312Z,98759.14
2022-12-11T22:52:56.558Z,98754.86
2022-12-11T22:55:28.824Z,98753.62
2022-12-11T22:58:01.200Z,98755.36
2022-12-11T23:00:33.477Z,98758.05
2022-12-11T23:03:06.304Z,98756.46
2022-12-11T23:05:43.402Z,98750.17
2022-12-11T23:08:15.823Z,98750.02
2022-12-11T23:10:48.110Z,98745.35
2022-12-11T23:13:20.483Z,98744.13
2022-12-11T23:15:52.753Z,98742.02
2022-12-11T23:18:25.025Z,98746.44
2022-12-11T23:20:57.244Z,98743.73
2022-12-11T23:23:29.632Z,98743.46
2022-12-11T23:26:02.179Z,98743.77
2022-12-11T23:28:34.389Z,98742.08
2022-12-11T23:31:07.091Z,98745.11
2022-12-11T23:33:39.494Z,98743.64
2022-12-11T23:36:14.501Z,98747.23
2022-12-11T23:38:49.558Z,98742.02
2022-12-11T23:41:25.709Z,98742.27
2022-12-11T23:43:57.946Z,98743.77
2022-12-11T23:46:30.268Z,98746.45
2022-12-11T23:49:02.563Z,98747.83
2022-12-11T23:51:34.803Z,98744.02
2022-12-11T23:54:07.186Z,98749.23
2022-12-11T23:56:39.810Z,98747.58
2022-12-11T23:59:15.050Z,98749.15
